createdAt,value
2022-09-28T04:00:19.127Z,13.05
2022-09-28T04:03:21.670Z,13.07
2022-09-28T04:06:26.808Z,12.61
2022-09-28T04:09:29.194Z,12.65
2022-09-28T04:12:31.331Z,12.55
2022-09-28T04:15:33.601Z,12.66
2022-09-28T04:18:35.663Z,12.66
2022-09-28T04:21:38.189Z,12.65
2022-09-28T04:24:43.478Z,12.67
2022-09-28T04:28:04.298Z,12.69
2022-09-28T04:31:16.127Z,12.66
2022-09-28T04:34:21.514Z,12.75
2022-09-28T04:37:24.321Z,12.73
2022-09-28T04:40:26.909Z,12.63
2022-09-28T04:43:29.114Z,12.59
2022-09-28T04:46:32.317Z,12.66
2022-09-28T04:49:38.245Z,12.55
2022-09-28T04:52:40.924Z,12.49
2022-09-28T04:55:43.086Z,12.40
2022-09-28T04:58:50.322Z,12.36
2022-09-28T05:01:55.399Z,12.36
2022-09-28T05:04:59.287Z,12.36
2022-09-28T05:08:01.554Z,12.18
2022-09-28T05:11:07.453Z,12.19
2022-09-28T05:14:11.601Z,12.06
2022-09-28T05:17:15.050Z,12.17
2022-09-28T05:20:17.670Z,12.12
2022-09-28T05:23:20.061Z,12.16
2022-09-28T05:26:22.877Z,12.08
2022-09-28T05:29:27.168Z,12.12
2022-09-28T05:32:32.506Z,12.03
2022-09-28T05:35:34.885Z,12.10
2022-09-28T05:38:37.165Z,12.10
2022-09-28T05:41:39.546Z,12.03
2022-09-28T05:44:41.623Z,12.19
2022-09-28T05:47:46.070Z,12.13
2022-09-28T05:50:52.619Z,12.18
2022-09-28T05:53:56.523Z,12.14
2022-09-28T05:56:58.741Z,12.26
2022-09-28T06:00:04.828Z,12.31
2022-09-28T06:03:14.713Z,12.40
2022-09-28T06:06:17.146Z,12.38
2022-09-28T06:09:23.844Z,12.46
2022-09-28T06:12:28.674Z,12.49
2022-09-28T06:15:32.681Z,12.66
2022-09-28T06:18:35.380Z,12.51
2022-09-28T06:21:38.181Z,12.56
2022-09-28T06:24:41.289Z,12.65
2022-09-28T06:27:43.349Z,12.78
2022-09-28T06:30:45.811Z,12.81
2022-09-28T06:33:51.703Z,12.83
2022-09-28T06:36:53.998Z,12.85
2022-09-28T06:39:56.388Z,12.94
2022-09-28T06:43:00.689Z,13.10
2022-09-28T06:46:03.394Z,13.19
2022-09-28T06:49:09.186Z,13.36
2022-09-28T06:52:14.890Z,13.44
2022-09-28T06:55:18.632Z,13.43
2022-09-28T06:58:21.389Z,13.45
2022-09-28T07:01:24.811Z,13.41
2022-09-28T07:04:31.078Z,13.51
2022-09-28T07:07:34.545Z,13.53
2022-09-28T07:10:42.029Z,13.61
2022-09-28T07:13:50.911Z,13.69
2022-09-28T07:17:12.354Z,13.75
2022-09-28T07:20:19.213Z,13.88
2022-09-28T07:23:23.281Z,13.94
2022-09-28T07:26:33.146Z,13.95
2022-09-28T07:29:35.303Z,13.98
2022-09-28T07:32:40.231Z,14.10
2022-09-28T07:35:50.651Z,14.18
2022-09-28T07:38:53.001Z,14.22
2022-09-28T07:41:59.644Z,14.19
2022-09-28T07:45:06.878Z,14.34
2022-09-28T07:48:09.268Z,14.30
2022-09-28T07:51:12.656Z,14.41
2022-09-28T07:54:14.755Z,14.59
2022-09-28T07:57:19.405Z,14.52
2022-09-28T08:00:22.210Z,14.53
2022-09-28T08:03:24.801Z,14.62
2022-09-28T08:06:27.323Z,14.67
2022-09-28T08:09:29.946Z,14.70
2022-09-28T08:12:36.000Z,14.88
2022-09-28T08:15:38.438Z,15.00
2022-09-28T08:18:41.410Z,15.06
2022-09-28T08:21:46.392Z,14.98
2022-09-28T08:24:49.575Z,15.00
2022-09-28T08:27:52.631Z,15.00
2022-09-28T08:30:58.689Z,15.02
2022-09-28T08:34:02.978Z,15.15
2022-09-28T08:37:09.211Z,15.15
2022-09-28T08:40:19.027Z,15.25
2022-09-28T08:43:57.707Z,15.29
2022-09-28T08:47:05.754Z,15.49
2022-09-28T08:50:16.575Z,15.59
2022-09-28T08:54:00.826Z,15.52
2022-09-28T08:57:16.433Z,15.66
2022-09-28T09:00:31.174Z,15.77
2022-09-28T09:03:37.693Z,15.86
2022-09-28T09:06:43.946Z,15.90
2022-09-28T09:10:20.715Z,15.90
2022-09-28T09:13:41.015Z,15.90
2022-09-28T09:17:13.853Z,15.74
2022-09-28T09:20:29.962Z,15.77
2022-09-28T09:23:43.159Z,16.02
2022-09-28T09:26:45.713Z,15.85
2022-09-28T09:30:23.889Z,15.94
2022-09-28T09:34:12.035Z,16.01
2022-09-28T09:37:30.058Z,16.03
2022-09-28T09:40:44.701Z,16.02
2022-09-28T09:44:03.084Z,16.21
2022-09-28T09:47:11.477Z,16.40
2022-09-28T09:50:35.267Z,16.49
2022-09-28T09:53:45.918Z,16.57
2022-09-28T09:57:03.634Z,16.43
2022-09-28T10:00:14.291Z,16.26
2022-09-28T10:03:39.049Z,16.40
2022-09-28T10:06:42.341Z,16.34
2022-09-28T10:09:48.225Z,16.27
2022-09-28T10:12:52.996Z,16.37
2022-09-28T10:15:56.240Z,16.37
2022-09-28T10:18:59.909Z,16.23
2022-09-28T10:22:15.909Z,16.30
2022-09-28T10:25:19.842Z,16.19
2022-09-28T10:28:32.938Z,16.25
2022-09-28T10:31:40.450Z,16.27
2022-09-28T10:34:45.450Z,16.34
2022-09-28T10:38:05.062Z,16.39
2022-09-28T10:41:13.507Z,16.35
2022-09-28T10:44:19.193Z,16.41
2022-09-28T10:47:26.506Z,16.59
2022-09-28T10:50:29.002Z,16.67
2022-09-28T10:53:34.731Z,16.58
2022-09-28T10:56:40.793Z,16.71
2022-09-28T10:59:43.810Z,16.71
2022-09-28T11:02:47.017Z,16.70
2022-09-28T11:06:02.505Z,16.62
2022-09-28T11:09:29.693Z,16.66
2022-09-28T11:12:43.039Z,16.59
2022-09-28T11:15:45.993Z,16.77
2022-09-28T11:18:49.464Z,16.86
2022-09-28T11:21:51.775Z,17.03
2022-09-28T11:25:18.159Z,17.09
2022-09-28T11:28:27.654Z,17.07
2022-09-28T11:31:31.460Z,17.06
2022-09-28T11:34:59.250Z,17.16
2022-09-28T11:38:25.454Z,17.26
2022-09-28T11:41:31.485Z,17.40
2022-09-28T11:44:48.221Z,17.36
2022-09-28T11:48:01.245Z,17.28
2022-09-28T11:51:29.293Z,17.40
2022-09-28T11:54:57.066Z,17.42
2022-09-28T11:58:35.097Z,17.35
2022-09-28T12:01:45.923Z,17.32
2022-09-28T12:04:55.270Z,17.32
2022-09-28T12:08:08.244Z,17.40
2022-09-28T12:11:20.482Z,17.29
2022-09-28T12:14:38.157Z,17.31
2022-09-28T12:17:46.164Z,17.38
2022-09-28T12:20:55.189Z,17.41
2022-09-28T12:24:22.897Z,17.47
2022-09-28T12:27:41.024Z,17.25
2022-09-28T12:30:45.176Z,17.28
2022-09-28T12:33:50.954Z,17.29
2022-09-28T12:37:10.630Z,17.36
2022-09-28T12:40:41.481Z,17.38
2022-09-28T12:44:09.864Z,17.34
2022-09-28T12:47:34.847Z,17.20
2022-09-28T12:50:55.989Z,17.11
2022-09-28T12:54:28.822Z,17.16
2022-09-28T12:57:38.021Z,17.18
2022-09-28T13:01:17.579Z,17.23
2022-09-28T13:05:08.986Z,17.31
2022-09-28T13:08:31.545Z,17.23
2022-09-28T13:12:05.177Z,17.25
2022-09-28T13:15:17.569Z,17.32
2022-09-28T13:18:37.273Z,17.41
2022-09-28T13:22:12.377Z,17.53
2022-09-28T13:25:18.261Z,17.41
2022-09-28T13:28:26.226Z,17.50
2022-09-28T13:31:34.949Z,17.46
2022-09-28T13:34:39.538Z,17.50
2022-09-28T13:37:41.892Z,17.54
2022-09-28T13:41:03.462Z,17.60
2022-09-28T13:44:12.619Z,17.62
2022-09-28T13:47:38.904Z,17.63
2022-09-28T13:51:23.544Z,17.75
2022-09-28T13:54:50.416Z,17.76
2022-09-28T13:57:58.680Z,17.73
2022-09-28T14:01:10.547Z,17.80
2022-09-28T14:04:25.106Z,17.79
2022-09-28T14:08:11.168Z,17.81
2022-09-28T14:11:34.166Z,17.98
2022-09-28T14:14:51.234Z,17.84
2022-09-28T14:18:08.369Z,17.86
2022-09-28T14:21:45.762Z,17.87
2022-09-28T14:25:04.209Z,17.87
2022-09-28T14:28:37.690Z,17.83
2022-09-28T14:31:43.554Z,17.80
2022-09-28T14:34:54.838Z,17.71
2022-09-28T14:38:24.766Z,17.66
2022-09-28T14:41:43.148Z,17.69
2022-09-28T14:45:06.599Z,17.74
2022-09-28T14:48:18.939Z,17.70
2022-09-28T14:51:41.118Z,17.64
2022-09-28T14:54:49.137Z,17.66
2022-09-28T14:57:55.077Z,17.52
2022-09-28T15:01:05.194Z,17.50
2022-09-28T15:04:12.673Z,17.48
2022-09-28T15:07:22.770Z,17.49
2022-09-28T15:10:33.405Z,17.47
2022-09-28T15:13:35.574Z,17.41
2022-09-28T15:16:38.074Z,17.40
2022-09-28T15:19:53.656Z,17.36
2022-09-28T15:22:57.244Z,17.29
2022-09-28T15:25:59.314Z,17.25
2022-09-28T15:29:04.237Z,17.27
2022-09-28T15:32:06.649Z,17.20
